createdAt,value
2023-04-25T00:00:55.557Z,25.20
2023-04-25T00:03:23.326Z,22.92
2023-04-25T00:05:51.511Z,27.50
2023-04-25T00:08:18.682Z,35.30
2023-04-25T00:10:45.865Z,23.73
2023-04-25T00:13:12.803Z,25.52
2023-04-25T00:15:39.888Z,18.02
2023-04-25T00:18:07.551Z,26.73
2023-04-25T00:20:34.572Z,39.53
2023-04-25T00:23:01.642Z,43.72
2023-04-25T00:25:28.801Z,28.83
2023-04-25T00:27:56.414Z,35.22
2023-04-25T00:30:23.373Z,25.38
2023-04-25T00:32:51.027Z,40.83
2023-04-25T00:35:18.138Z,66.95
2023-04-25T00:37:45.227Z,16.50
2023-04-25T00:40:12.487Z,16.77
2023-04-25T00:42:40.326Z,23.65
2023-04-25T00:45:08.640Z,22.88
2023-04-25T00:47:37.075Z,24.95
2023-04-25T00:50:04.215Z,19.70
2023-04-25T00:52:31.222Z,21.70
2023-04-25T00:54:58.271Z,21.67
2023-04-25T00:57:25.822Z,14.70
2023-04-25T00:59:54.194Z,16.48
2023-04-25T01:02:21.886Z,17.30
2023-04-25T01:04:49.501Z,18.33
2023-04-25T01:07:17.317Z,25.10
2023-04-25T01:09:44.762Z,19.88
2023-04-25T01:12:12.072Z,13.25
2023-04-25T01:14:39.342Z,15.23
2023-04-25T01:17:06.560Z,217.18
2023-04-25T01:19:33.712Z,244.82
2023-04-25T01:22:07.371Z,153.52
2023-04-25T01:24:34.597Z,163.00
2023-04-25T01:27:03.227Z,113.70
2023-04-25T01:29:31.692Z,194.25
2023-04-25T01:31:59.725Z,112.82
2023-04-25T01:34:26.836Z,57.17
2023-04-25T01:36:54.907Z,16.75
2023-04-25T01:39:22.868Z,15.93
2023-04-25T01:41:50.597Z,20.02
2023-04-25T01:44:17.820Z,15.65
2023-04-25T01:46:44.871Z,15.32
2023-04-25T01:49:12.112Z,19.95
2023-04-25T01:51:39.866Z,23.95
2023-04-25T01:54:06.954Z,18.92
2023-04-25T01:56:34.531Z,23.15
2023-04-25T01:59:02.917Z,21.75
2023-04-25T02:01:47.958Z,22.33
2023-04-25T02:04:22.755Z,18.15
2023-04-25T02:06:49.909Z,16.02
2023-04-25T02:09:16.852Z,15.30
2023-04-25T02:11:52.309Z,18.55
2023-04-25T02:14:35.504Z,18.92
2023-04-25T02:17:07.070Z,15.05
2023-04-25T02:19:34.112Z,21.83
2023-04-25T02:22:02.380Z,25.42
2023-04-25T02:24:29.417Z,22.67
2023-04-25T02:26:57.453Z,20.55
2023-04-25T02:29:24.563Z,19.23
2023-04-25T02:31:51.520Z,14.90
2023-04-25T02:34:18.513Z,19.00
2023-04-25T02:36:45.468Z,28.35
2023-04-25T02:39:12.661Z,25.33
2023-04-25T02:41:39.677Z,19.70
2023-04-25T02:44:06.631Z,20.67
2023-04-25T02:46:39.518Z,19.00
2023-04-25T02:49:07.841Z,21.10
2023-04-25T02:51:35.800Z,20.15
2023-04-25T02:54:03.088Z,21.73
2023-04-25T02:56:31.635Z,19.30
2023-04-25T02:58:59.407Z,26.02
2023-04-25T03:01:26.778Z,23.08
2023-04-25T03:03:54.116Z,19.27
2023-04-25T03:06:21.440Z,19.33
2023-04-25T03:08:48.453Z,18.92
2023-04-25T03:11:15.759Z,19.80
2023-04-25T03:13:44.340Z,16.92
2023-04-25T03:16:12.078Z,16.92
2023-04-25T03:18:39.132Z,18.75
2023-04-25T03:21:06.401Z,20.52
2023-04-25T03:23:33.659Z,24.58
2023-04-25T03:26:01.111Z,23.08
2023-04-25T03:28:28.841Z,16.42
2023-04-25T03:30:57.269Z,28.13
2023-04-25T03:33:24.968Z,19.35
2023-04-25T03:35:52.290Z,14.45
2023-04-25T03:38:19.347Z,22.20
2023-04-25T03:40:46.578Z,20.90
2023-04-25T03:43:34.199Z,17.92
2023-04-25T03:46:05.932Z,21.63
2023-04-25T03:48:33.128Z,23.95
2023-04-25T03:51:00.134Z,21.00
2023-04-25T03:53:27.380Z,20.17
2023-04-25T03:56:21.313Z,24.27
2023-04-25T03:58:54.660Z,19.00
2023-04-25T04:01:24.356Z,23.52
2023-04-25T04:03:51.828Z,23.40
2023-04-25T04:06:19.340Z,17.95
2023-04-25T04:08:50.523Z,19.25
2023-04-25T04:11:17.883Z,19.45
2023-04-25T04:13:45.097Z,22.10
2023-04-25T04:16:12.415Z,21.42
2023-04-25T04:18:40.057Z,15.20
2023-04-25T04:21:07.215Z,21.70
2023-04-25T04:23:39.514Z,17.15
2023-04-25T04:26:08.572Z,19.88
2023-04-25T04:28:41.083Z,21.07
2023-04-25T04:31:26.654Z,19.30
2023-04-25T04:33:53.800Z,29.17
2023-04-25T04:36:23.020Z,20.70
2023-04-25T04:38:51.286Z,15.10
2023-04-25T04:41:33.456Z,19.17
2023-04-25T04:44:23.955Z,20.27
2023-04-25T04:47:15.167Z,21.98
2023-04-25T04:50:12.051Z,19.15
2023-04-25T04:52:59.455Z,20.75
2023-04-25T04:55:47.309Z,21.48
2023-04-25T04:58:32.284Z,18.75
2023-04-25T05:01:17.308Z,21.60
2023-04-25T05:04:16.902Z,24.77
2023-04-25T05:06:59.253Z,23.02
2023-04-25T05:09:44.877Z,18.90
2023-04-25T05:12:40.916Z,27.10
2023-04-25T05:15:13.850Z,19.80
2023-04-25T05:18:04.416Z,22.65
2023-04-25T05:21:00.583Z,20.48
2023-04-25T05:23:48.054Z,18.85
2023-04-25T05:26:33.781Z,19.52
2023-04-25T05:29:20.972Z,19.08
2023-04-25T05:32:14.049Z,21.48
2023-04-25T05:34:41.293Z,18.67
2023-04-25T05:37:15.422Z,24.85
2023-04-25T05:39:54.405Z,16.23
2023-04-25T05:42:50.781Z,22.33
2023-04-25T05:45:20.869Z,20.98
2023-04-25T05:48:06.087Z,25.50
2023-04-25T05:50:44.898Z,17.52
2023-04-25T05:53:30.328Z,17.40
2023-04-25T05:56:01.289Z,16.65
2023-04-25T05:58:30.094Z,25.08
2023-04-25T06:00:59.331Z,16.15
2023-04-25T06:03:27.257Z,23.10
2023-04-25T06:05:54.486Z,25.48
2023-04-25T06:08:21.605Z,24.77
2023-04-25T06:10:48.518Z,19.80
2023-04-25T06:13:16.377Z,22.60
2023-04-25T06:15:44.560Z,25.98
2023-04-25T06:18:12.544Z,19.45
2023-04-25T06:20:39.627Z,29.73
2023-04-25T06:23:07.184Z,29.52
2023-04-25T06:25:45.693Z,28.38
2023-04-25T06:28:13.189Z,26.15
2023-04-25T06:30:41.529Z,21.13
2023-04-25T06:33:13.282Z,36.30
2023-04-25T06:35:41.379Z,22.30
2023-04-25T06:38:11.546Z,13.68
2023-04-25T06:40:40.514Z,20.17
2023-04-25T06:43:09.352Z,25.40
2023-04-25T06:45:48.715Z,26.63
2023-04-25T06:48:16.849Z,25.02
2023-04-25T06:50:43.896Z,23.40
2023-04-25T06:53:12.738Z,24.08
2023-04-25T06:55:41.532Z,13.80
2023-04-25T06:58:16.392Z,21.58
2023-04-25T07:01:09.563Z,25.55
2023-04-25T07:03:38.903Z,23.67
2023-04-25T07:06:11.067Z,22.17
2023-04-25T07:08:38.851Z,18.63
2023-04-25T07:11:05.977Z,19.77
2023-04-25T07:13:32.953Z,21.77
2023-04-25T07:16:00.970Z,18.45
2023-04-25T07:18:29.734Z,20.67
2023-04-25T07:20:56.741Z,24.23
2023-04-25T07:23:24.524Z,25.13
2023-04-25T07:25:51.715Z,23.42
2023-04-25T07:28:22.053Z,18.42
2023-04-25T07:30:49.093Z,16.95
2023-04-25T07:33:16.131Z,19.90
2023-04-25T07:35:43.127Z,21.45
2023-04-25T07:38:11.653Z,17.73
2023-04-25T07:40:39.268Z,22.50
2023-04-25T07:43:08.904Z,22.52
2023-04-25T07:45:49.583Z,17.98
2023-04-25T07:48:19.917Z,39.70
2023-04-25T07:50:48.260Z,19.83
2023-04-25T07:53:16.900Z,24.63
2023-04-25T07:55:50.201Z,19.77
2023-04-25T07:58:23.362Z,34.72
2023-04-25T08:00:55.047Z,23.55
2023-04-25T08:03:37.572Z,14.70
2023-04-25T08:06:09.727Z,17.08
2023-04-25T08:08:47.302Z,17.13
2023-04-25T08:11:18.080Z,16.77
2023-04-25T08:13:45.137Z,16.67
2023-04-25T08:16:12.914Z,20.08
2023-04-25T08:18:39.984Z,20.17
2023-04-25T08:21:07.885Z,18.98
2023-04-25T08:23:35.101Z,22.38
2023-04-25T08:26:11.196Z,15.80
2023-04-25T08:28:39.688Z,18.70
2023-04-25T08:31:07.309Z,23.85
2023-04-25T08:33:44.745Z,20.70
2023-04-25T08:36:39.206Z,14.43
2023-04-25T08:39:17.377Z,20.38
2023-04-25T08:41:58.841Z,20.15
2023-04-25T08:44:26.196Z,18.60
2023-04-25T08:46:53.651Z,20.25
2023-04-25T08:49:28.855Z,23.52
2023-04-25T08:52:00.674Z,18.70
2023-04-25T08:54:34.592Z,20.83
2023-04-25T08:59:33.586Z,22.13
2023-04-25T09:02:02.604Z,32.13
2023-04-25T09:04:34.600Z,25.17
2023-04-25T09:07:01.665Z,21.75
2023-04-25T09:09:30.764Z,20.25
2023-04-25T09:11:59.197Z,22.63
2023-04-25T09:14:27.106Z,30.08
2023-04-25T09:17:06.220Z,27.48
2023-04-25T09:19:46.843Z,22.23
2023-04-25T09:22:27.440Z,21.92
2023-04-25T09:24:54.375Z,23.13
2023-04-25T09:27:26.330Z,21.67
2023-04-25T09:30:02.267Z,22.00
2023-04-25T09:32:40.647Z,19.45
2023-04-25T09:35:09.250Z,27.17
2023-04-25T09:37:36.348Z,19.08
2023-04-25T09:40:09.116Z,18.38
2023-04-25T09:42:49.295Z,17.70
2023-04-25T09:45:16.339Z,19.83
2023-04-25T09:47:47.685Z,13.98
2023-04-25T09:50:20.483Z,16.02
2023-04-25T09:53:07.025Z,13.25
2023-04-25T09:56:01.952Z,20.25
2023-04-25T09:58:33.095Z,20.35
2023-04-25T10:01:04.013Z,15.88
2023-04-25T10:03:41.637Z,18.25
2023-04-25T10:06:39.156Z,20.65
2023-04-25T10:09:08.889Z,19.77
2023-04-25T10:11:36.720Z,27.00
2023-04-25T10:14:04.094Z,25.10
2023-04-25T10:16:32.035Z,18.13
2023-04-25T10:18:59.196Z,26.08
2023-04-25T10:21:29.496Z,19.15
2023-04-25T10:23:56.729Z,27.10
2023-04-25T10:26:24.779Z,26.40
2023-04-25T10:29:03.204Z,18.67
2023-04-25T10:31:33.250Z,18.90
2023-04-25T10:34:03.660Z,20.67
2023-04-25T10:36:33.481Z,12.73
2023-04-25T10:39:10.133Z,17.85
2023-04-25T10:41:59.567Z,21.25
2023-04-25T10:44:33.434Z,15.13
2023-04-25T10:47:02.444Z,13.52
2023-04-25T10:49:33.565Z,15.85
2023-04-25T10:52:18.762Z,15.40
2023-04-25T10:54:52.493Z,14.13
2023-04-25T10:57:32.533Z,22.17
2023-04-25T11:00:12.959Z,12.23
2023-04-25T11:02:53.185Z,18.48
2023-04-25T11:05:50.941Z,16.10
2023-04-25T11:08:46.407Z,16.77
2023-04-25T11:11:13.924Z,16.63
2023-04-25T11:13:40.833Z,15.50
2023-04-25T11:16:12.792Z,18.70
2023-04-25T11:18:44.782Z,13.45
2023-04-25T11:21:12.912Z,18.10
2023-04-25T11:23:40.067Z,14.82
2023-04-25T11:26:07.171Z,16.73
2023-04-25T11:28:34.062Z,15.48
2023-04-25T11:31:01.327Z,11.02
2023-04-25T11:33:28.591Z,14.27
2023-04-25T11:35:59.532Z,16.58
2023-04-25T11:38:29.664Z,15.05
2023-04-25T11:40:56.955Z,13.48
2023-04-25T11:43:24.308Z,12.55
2023-04-25T11:45:52.808Z,11.52
2023-04-25T11:48:20.928Z,25.02
2023-04-25T11:50:53.092Z,15.77
2023-04-25T11:53:19.979Z,15.25
2023-04-25T11:55:47.599Z,12.20
2023-04-25T11:58:14.934Z,8.25
2023-04-25T12:00:50.205Z,8.23
2023-04-25T12:03:20.421Z,8.27
2023-04-25T12:05:47.966Z,19.20
2023-04-25T12:08:17.469Z,13.60
2023-04-25T12:10:47.294Z,13.32
2023-04-25T12:13:29.361Z,13.10
2023-04-25T12:15:57.754Z,12.88
2023-04-25T12:18:28.671Z,9.90
2023-04-25T12:20:56.429Z,11.00
2023-04-25T12:23:28.692Z,13.85
2023-04-25T12:25:55.772Z,8.80
2023-04-25T12:28:28.856Z,13.95
2023-04-25T12:30:59.920Z,11.80
2023-04-25T12:33:29.034Z,8.63
2023-04-25T12:35:57.150Z,12.10
2023-04-25T12:38:32.717Z,11.93
2023-04-25T12:41:00.086Z,10.40
2023-04-25T12:43:27.821Z,11.45
2023-04-25T12:45:56.269Z,13.98
2023-04-25T12:48:24.679Z,15.35
2023-04-25T12:50:55.247Z,12.70
2023-04-25T12:53:25.334Z,14.10
2023-04-25T12:55:52.497Z,11.73
2023-04-25T12:58:20.288Z,8.48
2023-04-25T13:00:47.659Z,16.27
2023-04-25T13:03:14.772Z,11.15
2023-04-25T13:05:42.334Z,13.95
2023-04-25T13:08:09.426Z,9.05
2023-04-25T13:10:37.327Z,14.38
2023-04-25T13:13:04.299Z,11.93
2023-04-25T13:15:31.331Z,10.95
2023-04-25T13:17:58.265Z,6.68
2023-04-25T13:20:25.295Z,9.70
2023-04-25T13:22:52.321Z,13.77
2023-04-25T13:25:19.926Z,12.98
2023-04-25T13:27:47.537Z,9.20
2023-04-25T13:30:15.016Z,6.60
2023-04-25T13:32:42.287Z,6.20
2023-04-25T13:35:12.726Z,8.15
2023-04-25T13:37:40.381Z,11.02
2023-04-25T13:40:10.569Z,9.13
2023-04-25T13:42:38.728Z,6.80
2023-04-25T13:45:06.559Z,11.77
2023-04-25T13:47:33.592Z,6.30
2023-04-25T13:50:01.381Z,11.35
2023-04-25T13:52:28.519Z,18.17
2023-04-25T13:54:55.611Z,13.02
2023-04-25T13:57:22.656Z,13.93
2023-04-25T13:59:49.549Z,11.57
2023-04-25T14:02:16.641Z,10.25
2023-04-25T14:04:43.896Z,8.38
2023-04-25T14:07:12.050Z,12.50
2023-04-25T14:09:39.339Z,13.90
2023-04-25T14:12:07.108Z,15.23
2023-04-25T14:14:34.183Z,13.35
2023-04-25T14:17:01.134Z,9.43
2023-04-25T14:19:28.786Z,8.65
2023-04-25T14:21:56.003Z,14.13
2023-04-25T14:24:23.101Z,14.95
2023-04-25T14:26:50.161Z,12.50
2023-04-25T14:29:17.060Z,10.23
2023-04-25T14:31:44.050Z,14.00
2023-04-25T14:34:11.716Z,9.40
2023-04-25T14:36:38.722Z,8.25
2023-04-25T14:39:08.650Z,9.63
2023-04-25T14:41:35.739Z,12.35
2023-04-25T14:44:02.641Z,11.77
2023-04-25T14:46:30.312Z,9.35
2023-04-25T14:48:57.444Z,10.43
2023-04-25T14:51:24.713Z,9.80
2023-04-25T14:53:52.244Z,9.82
2023-04-25T14:56:20.051Z,7.05
2023-04-25T14:58:47.310Z,17.40
2023-04-25T15:01:15.096Z,10.00
2023-04-25T15:03:42.650Z,14.85
2023-04-25T15:06:10.082Z,12.10
2023-04-25T15:08:37.275Z,12.88
2023-04-25T15:11:04.540Z,15.70
2023-04-25T15:13:32.025Z,14.68
2023-04-25T15:15:59.052Z,10.85
2023-04-25T15:18:26.337Z,15.68
2023-04-25T15:20:54.482Z,12.88
2023-04-25T15:23:22.790Z,7.25
2023-04-25T15:25:52.296Z,13.38
2023-04-25T15:28:19.945Z,9.77
2023-04-25T15:30:47.006Z,12.88
2023-04-25T15:33:14.618Z,11.77
2023-04-25T15:35:41.801Z,12.43
2023-04-25T15:38:09.667Z,9.05
2023-04-25T15:40:37.152Z,11.85
2023-04-25T15:43:06.374Z,10.63
2023-04-25T15:45:33.684Z,9.75
2023-04-25T15:48:02.127Z,12.13
2023-04-25T15:50:29.989Z,12.85
2023-04-25T15:52:58.106Z,9.48
2023-04-25T15:55:26.984Z,9.95
2023-04-25T15:57:54.336Z,10.50
2023-04-25T16:00:22.524Z,10.55
2023-04-25T16:02:49.718Z,12.30
2023-04-25T16:05:17.509Z,9.00
2023-04-25T16:07:46.744Z,7.70
2023-04-25T16:10:20.147Z,11.57
2023-04-25T16:12:50.730Z,12.35
2023-04-25T16:15:18.196Z,11.55
2023-04-25T16:17:45.877Z,8.02
2023-04-25T16:20:13.687Z,11.23
2023-04-25T16:22:41.837Z,17.98
2023-04-25T16:25:09.777Z,13.32
2023-04-25T16:27:40.441Z,13.27
2023-04-25T16:30:09.493Z,14.48
2023-04-25T16:32:38.041Z,13.50
2023-04-25T16:35:05.579Z,12.90
2023-04-25T16:37:32.743Z,10.05
2023-04-25T16:39:59.833Z,10.77
2023-04-25T16:42:26.963Z,12.13
2023-04-25T16:44:53.918Z,5.18
2023-04-25T16:47:21.235Z,11.75
2023-04-25T16:49:48.217Z,7.53
2023-04-25T16:52:16.413Z,9.00
2023-04-25T16:54:43.766Z,4.65
2023-04-25T16:57:11.527Z,7.10
2023-04-25T16:59:41.640Z,11.18
2023-04-25T17:02:13.018Z,18.88
2023-04-25T17:04:40.934Z,9.65
2023-04-25T17:07:09.067Z,7.68
2023-04-25T17:09:36.432Z,12.07
2023-04-25T17:12:04.573Z,13.20
2023-04-25T17:14:33.349Z,8.73
2023-04-25T17:17:00.404Z,11.52
2023-04-25T17:19:28.584Z,12.52
2023-04-25T17:21:56.229Z,8.80
2023-04-25T17:24:23.205Z,17.05
2023-04-25T17:26:50.220Z,16.60
2023-04-25T17:29:17.596Z,19.70
2023-04-25T17:31:44.909Z,14.77
2023-04-25T17:34:16.571Z,21.88
2023-04-25T17:36:46.403Z,10.98
2023-04-25T17:39:17.528Z,28.27
2023-04-25T17:41:45.239Z,17.02
2023-04-25T17:44:12.407Z,19.48
2023-04-25T17:46:39.546Z,14.98
2023-04-25T17:49:06.747Z,13.10
2023-04-25T17:51:33.794Z,11.75
2023-04-25T17:54:00.796Z,12.07
2023-04-25T17:56:28.063Z,14.15
2023-04-25T17:58:56.707Z,7.35
2023-04-25T18:01:23.729Z,14.65
2023-04-25T18:03:51.839Z,11.45
2023-04-25T18:06:19.431Z,11.25
2023-04-25T18:08:47.317Z,12.35
2023-04-25T18:11:14.444Z,17.70
2023-04-25T18:13:41.880Z,9.23
2023-04-25T18:16:08.954Z,14.38
2023-04-25T18:18:36.881Z,12.93
2023-04-25T18:21:07.036Z,14.13
2023-04-25T18:23:34.292Z,8.98
2023-04-25T18:26:02.791Z,15.43
2023-04-25T18:28:29.954Z,13.20
2023-04-25T18:30:57.045Z,14.18
2023-04-25T18:33:24.026Z,11.10
2023-04-25T18:35:58.152Z,13.85
2023-04-25T18:38:34.907Z,18.33
2023-04-25T18:41:18.274Z,12.73
2023-04-25T18:43:50.840Z,12.55
2023-04-25T18:46:22.379Z,14.52
2023-04-25T18:48:50.565Z,14.27
2023-04-25T18:51:17.714Z,11.50
2023-04-25T18:53:44.759Z,15.18
2023-04-25T18:56:11.780Z,15.75
2023-04-25T18:58:38.672Z,22.80
2023-04-25T19:01:05.959Z,20.83
2023-04-25T19:03:33.515Z,10.63
2023-04-25T19:06:00.706Z,16.20
2023-04-25T19:08:28.365Z,17.00
2023-04-25T19:10:55.305Z,18.23
2023-04-25T19:13:22.362Z,14.63
2023-04-25T19:15:49.649Z,16.92
2023-04-25T19:18:17.465Z,13.00
2023-04-25T19:20:44.526Z,11.55
2023-04-25T19:23:11.489Z,19.83
2023-04-25T19:25:38.441Z,15.60
2023-04-25T19:28:07.461Z,10.50
2023-04-25T19:30:34.601Z,11.65
2023-04-25T19:33:01.745Z,11.13
2023-04-25T19:35:31.005Z,16.30
2023-04-25T19:37:58.267Z,9.23
2023-04-25T19:40:26.197Z,5.82
2023-04-25T19:42:53.210Z,9.48
2023-04-25T19:45:21.004Z,11.07
2023-04-25T19:47:50.563Z,11.93
2023-04-25T19:50:17.963Z,9.10
2023-04-25T19:52:45.026Z,10.52
2023-04-25T19:55:12.033Z,11.23
2023-04-25T19:57:39.153Z,8.43
2023-04-25T20:00:12.202Z,10.38
2023-04-25T20:02:39.852Z,8.73
2023-04-25T20:05:08.609Z,6.80
2023-04-25T20:07:36.182Z,8.68
2023-04-25T20:10:04.372Z,9.27
2023-04-25T20:12:31.611Z,8.93
2023-04-25T20:15:02.318Z,8.15
2023-04-25T20:17:31.446Z,7.40
2023-04-25T20:19:58.426Z,6.60
2023-04-25T20:22:25.789Z,7.55
2023-04-25T20:24:52.952Z,5.05
2023-04-25T20:27:21.555Z,7.32
2023-04-25T20:29:48.489Z,8.13
2023-04-25T20:32:15.765Z,5.68
2023-04-25T20:34:42.858Z,6.65
2023-04-25T20:37:09.939Z,8.77
2023-04-25T20:39:36.918Z,8.02
2023-04-25T20:42:04.248Z,7.25
2023-04-25T20:44:32.136Z,10.00
2023-04-25T20:46:59.073Z,6.65
2023-04-25T20:49:26.777Z,6.45
2023-04-25T20:51:54.005Z,8.85
2023-04-25T20:54:21.055Z,10.43
2023-04-25T20:56:51.178Z,5.28
2023-04-25T20:59:18.324Z,9.30
2023-04-25T21:01:45.264Z,5.32
2023-04-25T21:04:15.454Z,6.40
2023-04-25T21:06:50.427Z,5.68
2023-04-25T21:09:18.830Z,6.85
2023-04-25T21:11:48.678Z,5.70
2023-04-25T21:14:16.643Z,8.35
2023-04-25T21:16:43.838Z,7.40
2023-04-25T21:19:11.277Z,8.48
2023-04-25T21:21:44.595Z,6.57
2023-04-25T21:24:14.319Z,5.30
2023-04-25T21:26:47.513Z,12.43
2023-04-25T21:29:17.886Z,7.72
2023-04-25T21:31:46.694Z,12.82
2023-04-25T21:34:13.680Z,6.30
2023-04-25T21:36:41.521Z,8.50
2023-04-25T21:39:08.507Z,8.50
2023-04-25T21:41:37.679Z,6.70
2023-04-25T21:44:04.819Z,7.47
2023-04-25T21:46:31.767Z,10.75
2023-04-25T21:48:58.939Z,10.70
2023-04-25T21:51:26.020Z,6.05
2023-04-25T21:53:53.106Z,7.68
2023-04-25T21:56:20.127Z,10.95
2023-04-25T21:58:47.324Z,23.75
2023-04-25T22:01:16.011Z,11.68
2023-04-25T22:03:43.110Z,76.00
2023-04-25T22:06:10.421Z,36.13
2023-04-25T22:08:37.638Z,76.93
2023-04-25T22:11:07.386Z,10.52
2023-04-25T22:13:34.388Z,10.48
2023-04-25T22:16:01.524Z,8.50
2023-04-25T22:18:29.202Z,8.13
2023-04-25T22:20:56.475Z,12.88
2023-04-25T22:23:24.036Z,28.27
2023-04-25T22:25:51.604Z,36.92
2023-04-25T22:28:18.510Z,46.53
2023-04-25T22:30:45.464Z,38.33
2023-04-25T22:33:12.542Z,16.30
2023-04-25T22:35:39.512Z,4.85
2023-04-25T22:38:06.513Z,5.70
2023-04-25T22:40:33.682Z,13.30
2023-04-25T22:43:00.866Z,28.05
2023-04-25T22:45:28.017Z,6.93
2023-04-25T22:47:55.155Z,119.88
2023-04-25T22:50:22.256Z,76.38
2023-04-25T22:52:49.232Z,58.05
2023-04-25T22:55:16.258Z,14.20
2023-04-25T22:57:43.294Z,20.67
2023-04-25T23:00:20.079Z,17.17
2023-04-25T23:02:49.035Z,8.18
2023-04-25T23:05:16.234Z,7.68
2023-04-25T23:07:45.130Z,10.57
2023-04-25T23:10:13.278Z,7.45
2023-04-25T23:12:40.418Z,9.60
2023-04-25T23:15:08.374Z,9.32
2023-04-25T23:17:35.458Z,9.65
2023-04-25T23:20:05.665Z,7.07
2023-04-25T23:22:32.671Z,9.88
2023-04-25T23:24:59.593Z,12.38
2023-04-25T23:27:27.263Z,12.80
2023-04-25T23:29:55.478Z,12.35
2023-04-25T23:32:23.262Z,12.48
2023-04-25T23:34:50.225Z,9.38
2023-04-25T23:37:17.339Z,7.47
2023-04-25T23:39:49.409Z,11.32
2023-04-25T23:42:17.347Z,11.32
2023-04-25T23:44:44.358Z,8.05
2023-04-25T23:47:13.784Z,12.73
2023-04-25T23:49:41.160Z,8.23
2023-04-25T23:52:08.350Z,7.50
2023-04-25T23:54:35.500Z,11.60
2023-04-25T23:57:04.519Z,12.10
2023-04-25T23:59:31.800Z,8.43
